sensor_id;sensor_type;location;lat;lon;timestamp;P1;durP1;ratioP1;P2;durP2;ratioP2
71360;SDS011;59166;48.908;1.870;2023-02-13T00:04:18;33.08;;;14.30;;
71360;SDS011;59166;48.908;1.870;2023-02-13T00:09:19;33.05;;;14.70;;
71360;SDS011;59166;48.908;1.870;2023-02-13T00:14:21;35.13;;;15.60;;
71360;SDS011;59166;48.908;1.870;2023-02-13T00:19:22;34.77;;;14.33;;
71360;SDS011;59166;48.908;1.870;2023-02-13T00:24:22;34.63;;;14.83;;
71360;SDS011;59166;48.908;1.870;2023-02-13T00:29:24;35.97;;;14.23;;
71360;SDS011;59166;48.908;1.870;2023-02-13T00:34:25;36.15;;;14.88;;
71360;SDS011;59166;48.908;1.870;2023-02-13T00:39:26;36.60;;;15.03;;
71360;SDS011;59166;48.908;1.870;2023-02-13T00:44:28;34.55;;;14.68;;
71360;SDS011;59166;48.908;1.870;2023-02-13T00:49:29;33.73;;;14.07;;
71360;SDS011;59166;48.908;1.870;2023-02-13T00:54:29;34.67;;;14.13;;
71360;SDS011;59166;48.908;1.870;2023-02-13T00:59:31;36.47;;;14.23;;
71360;SDS011;59166;48.908;1.870;2023-02-13T01:04:32;34.40;;;14.10;;
71360;SDS011;59166;48.908;1.870;2023-02-13T01:09:33;34.83;;;13.87;;
71360;SDS011;59166;48.908;1.870;2023-02-13T01:14:35;30.95;;;12.50;;
71360;SDS011;59166;48.908;1.870;2023-02-13T01:19:36;32.73;;;13.80;;
71360;SDS011;59166;48.908;1.870;2023-02-13T01:24:36;30.27;;;13.18;;
71360;SDS011;59166;48.908;1.870;2023-02-13T01:29:38;33.17;;;13.40;;
71360;SDS011;59166;48.908;1.870;2023-02-13T01:34:39;32.07;;;13.57;;
71360;SDS011;59166;48.908;1.870;2023-02-13T01:39:40;39.33;;;17.97;;
71360;SDS011;59166;48.908;1.870;2023-02-13T01:44:49;38.53;;;17.70;;
71360;SDS011;59166;48.908;1.870;2023-02-13T01:49:58;40.28;;;17.27;;
71360;SDS011;59166;48.908;1.870;2023-02-13T01:55:03;43.60;;;17.73;;
71360;SDS011;59166;48.908;1.870;2023-02-13T02:00:07;42.67;;;19.40;;
71360;SDS011;59166;48.908;1.870;2023-02-13T02:05:11;42.47;;;18.77;;
71360;SDS011;59166;48.908;1.870;2023-02-13T02:10:13;40.03;;;18.38;;
71360;SDS011;59166;48.908;1.870;2023-02-13T02:15:17;43.40;;;18.67;;
71360;SDS011;59166;48.908;1.870;2023-02-13T02:20:21;44.05;;;19.27;;
71360;SDS011;59166;48.908;1.870;2023-02-13T02:31:19;44.97;;;19.57;;
71360;SDS011;59166;48.908;1.870;2023-02-13T02:36:43;39.30;;;17.08;;
71360;SDS011;59166;48.908;1.870;2023-02-13T02:41:57;39.70;;;17.20;;
71360;SDS011;59166;48.908;1.870;2023-02-13T02:47:12;38.40;;;16.70;;
71360;SDS011;59166;48.908;1.870;2023-02-13T02:52:22;40.10;;;17.93;;
71360;SDS011;59166;48.908;1.870;2023-02-13T02:57:30;43.80;;;18.25;;
71360;SDS011;59166;48.908;1.870;2023-02-13T03:02:32;42.55;;;16.70;;
71360;SDS011;59166;48.908;1.870;2023-02-13T03:07:35;36.97;;;15.77;;
71360;SDS011;59166;48.908;1.870;2023-02-13T03:12:37;40.42;;;15.38;;
71360;SDS011;59166;48.908;1.870;2023-02-13T03:17:41;40.28;;;16.52;;
71360;SDS011;59166;48.908;1.870;2023-02-13T03:22:47;38.50;;;15.73;;
71360;SDS011;59166;48.908;1.870;2023-02-13T03:28:00;36.42;;;13.77;;
71360;SDS011;59166;48.908;1.870;2023-02-13T03:33:11;38.90;;;15.68;;
71360;SDS011;59166;48.908;1.870;2023-02-13T03:38:26;35.30;;;14.23;;
71360;SDS011;59166;48.908;1.870;2023-02-13T03:43:32;37.50;;;14.73;;
71360;SDS011;59166;48.908;1.870;2023-02-13T03:48:38;36.88;;;15.65;;
71360;SDS011;59166;48.908;1.870;2023-02-13T03:53:42;40.45;;;16.70;;
71360;SDS011;59166;48.908;1.870;2023-02-13T03:58:47;42.77;;;16.83;;
71360;SDS011;59166;48.908;1.870;2023-02-13T04:03:57;41.20;;;16.83;;
71360;SDS011;59166;48.908;1.870;2023-02-13T04:09:06;41.53;;;17.10;;
71360;SDS011;59166;48.908;1.870;2023-02-13T04:14:06;38.03;;;14.47;;
71360;SDS011;59166;48.908;1.870;2023-02-13T04:19:12;36.97;;;14.50;;
71360;SDS011;59166;48.908;1.870;2023-02-13T04:24:16;37.67;;;15.63;;
71360;SDS011;59166;48.908;1.870;2023-02-13T04:29:16;38.00;;;15.90;;
71360;SDS011;59166;48.908;1.870;2023-02-13T04:34:17;40.20;;;16.17;;
71360;SDS011;59166;48.908;1.870;2023-02-13T04:39:19;42.13;;;16.90;;
71360;SDS011;59166;48.908;1.870;2023-02-13T04:44:20;39.17;;;15.95;;
71360;SDS011;59166;48.908;1.870;2023-02-13T04:49:20;44.70;;;17.10;;
71360;SDS011;59166;48.908;1.870;2023-02-13T04:54:22;38.50;;;15.43;;
71360;SDS011;59166;48.908;1.870;2023-02-13T04:59:23;40.85;;;16.65;;
71360;SDS011;59166;48.908;1.870;2023-02-13T05:04:24;42.43;;;16.43;;
71360;SDS011;59166;48.908;1.870;2023-02-13T05:09:26;41.33;;;16.60;;
71360;SDS011;59166;48.908;1.870;2023-02-13T05:14:27;40.83;;;16.40;;
71360;SDS011;59166;48.908;1.870;2023-02-13T05:19:27;42.70;;;16.57;;
71360;SDS011;59166;48.908;1.870;2023-02-13T05:24:29;61.73;;;18.37;;
71360;SDS011;59166;48.908;1.870;2023-02-13T05:29:30;51.67;;;16.63;;
71360;SDS011;59166;48.908;1.870;2023-02-13T05:34:30;42.77;;;16.33;;
71360;SDS011;59166;48.908;1.870;2023-02-13T05:39:32;41.80;;;16.13;;
71360;SDS011;59166;48.908;1.870;2023-02-13T05:44:33;40.25;;;15.88;;
71360;SDS011;59166;48.908;1.870;2023-02-13T05:49:34;40.20;;;16.47;;
71360;SDS011;59166;48.908;1.870;2023-02-13T05:54:36;42.25;;;15.70;;
71360;SDS011;59166;48.908;1.870;2023-02-13T05:59:36;42.40;;;16.27;;
71360;SDS011;59166;48.908;1.870;2023-02-13T06:04:37;35.72;;;14.77;;
71360;SDS011;59166;48.908;1.870;2023-02-13T06:09:39;38.63;;;14.53;;
71360;SDS011;59166;48.908;1.870;2023-02-13T06:14:40;36.38;;;14.18;;
71360;SDS011;59166;48.908;1.870;2023-02-13T06:19:40;38.57;;;13.37;;
71360;SDS011;59166;48.908;1.870;2023-02-13T06:24:42;46.87;;;17.83;;
71360;SDS011;59166;48.908;1.870;2023-02-13T06:29:43;43.85;;;16.38;;
71360;SDS011;59166;48.908;1.870;2023-02-13T06:34:43;40.80;;;17.03;;
71360;SDS011;59166;48.908;1.870;2023-02-13T06:39:46;48.87;;;17.53;;
71360;SDS011;59166;48.908;1.870;2023-02-13T06:44:47;44.93;;;16.80;;
71360;SDS011;59166;48.908;1.870;2023-02-13T06:49:47;41.10;;;15.70;;
71360;SDS011;59166;48.908;1.870;2023-02-13T06:54:49;41.70;;;17.73;;
71360;SDS011;59166;48.908;1.870;2023-02-13T06:59:50;41.45;;;17.27;;
71360;SDS011;59166;48.908;1.870;2023-02-13T07:04:51;41.87;;;17.37;;
71360;SDS011;59166;48.908;1.870;2023-02-13T07:09:54;42.42;;;18.10;;
71360;SDS011;59166;48.908;1.870;2023-02-13T07:14:56;45.42;;;18.00;;
71360;SDS011;59166;48.908;1.870;2023-02-13T07:19:57;43.30;;;18.27;;
71360;SDS011;59166;48.908;1.870;2023-02-13T07:24:59;57.80;;;22.37;;
71360;SDS011;59166;48.908;1.870;2023-02-13T07:30:00;49.58;;;20.15;;
71360;SDS011;59166;48.908;1.870;2023-02-13T07:35:00;44.60;;;18.70;;
71360;SDS011;59166;48.908;1.870;2023-02-13T07:40:03;49.43;;;19.53;;
71360;SDS011;59166;48.908;1.870;2023-02-13T07:45:04;44.13;;;18.60;;
71360;SDS011;59166;48.908;1.870;2023-02-13T07:50:06;48.30;;;19.85;;
71360;SDS011;59166;48.908;1.870;2023-02-13T07:55:09;49.77;;;18.93;;
71360;SDS011;59166;48.908;1.870;2023-02-13T08:00:10;48.22;;;19.40;;
71360;SDS011;59166;48.908;1.870;2023-02-13T08:05:11;43.60;;;18.50;;
71360;SDS011;59166;48.908;1.870;2023-02-13T08:10:14;41.83;;;17.70;;
71360;SDS011;59166;48.908;1.870;2023-02-13T08:15:15;51.97;;;17.38;;
71360;SDS011;59166;48.908;1.870;2023-02-13T08:20:15;42.60;;;18.03;;
71360;SDS011;59166;48.908;1.870;2023-02-13T08:25:18;44.72;;;18.70;;
71360;SDS011;59166;48.908;1.870;2023-02-13T08:30:18;35.83;;;16.73;;
71360;SDS011;59166;48.908;1.870;2023-02-13T08:35:19;52.23;;;21.47;;
71360;SDS011;59166;48.908;1.870;2023-02-13T08:40:22;56.47;;;22.88;;
71360;SDS011;59166;48.908;1.870;2023-02-13T08:45:23;51.70;;;21.77;;
71360;SDS011;59166;48.908;1.870;2023-02-13T08:50:24;48.50;;;21.52;;
71360;SDS011;59166;48.908;1.870;2023-02-13T08:55:27;48.22;;;18.70;;
71360;SDS011;59166;48.908;1.870;2023-02-13T09:00:28;41.80;;;16.03;;
71360;SDS011;59166;48.908;1.870;2023-02-13T09:05:29;48.13;;;19.37;;
71360;SDS011;59166;48.908;1.870;2023-02-13T09:10:32;42.97;;;18.60;;
71360;SDS011;59166;48.908;1.870;2023-02-13T09:15:33;53.85;;;21.48;;
71360;SDS011;59166;48.908;1.870;2023-02-13T09:20:37;51.37;;;21.73;;
71360;SDS011;59166;48.908;1.870;2023-02-13T09:25:39;50.17;;;20.60;;
71360;SDS011;59166;48.908;1.870;2023-02-13T09:30:40;49.90;;;20.33;;
71360;SDS011;59166;48.908;1.870;2023-02-13T09:35:41;48.60;;;20.35;;
71360;SDS011;59166;48.908;1.870;2023-02-13T09:40:44;53.73;;;21.10;;
71360;SDS011;59166;48.908;1.870;2023-02-13T09:45:48;50.70;;;20.17;;
71360;SDS011;59166;48.908;1.870;2023-02-13T09:50:50;51.88;;;20.58;;
71360;SDS011;59166;48.908;1.870;2023-02-13T09:55:57;51.93;;;20.60;;
71360;SDS011;59166;48.908;1.870;2023-02-13T10:01:05;52.22;;;20.30;;
71360;SDS011;59166;48.908;1.870;2023-02-13T10:06:19;49.47;;;22.93;;
71360;SDS011;59166;48.908;1.870;2023-02-13T10:11:47;49.45;;;21.50;;
71360;SDS011;59166;48.908;1.870;2023-02-13T10:17:09;47.70;;;19.98;;
71360;SDS011;59166;48.908;1.870;2023-02-13T10:22:14;44.07;;;19.30;;
71360;SDS011;59166;48.908;1.870;2023-02-13T10:27:20;42.83;;;19.67;;
71360;SDS011;59166;48.908;1.870;2023-02-13T10:32:24;42.20;;;20.08;;
71360;SDS011;59166;48.908;1.870;2023-02-13T10:37:28;39.58;;;19.02;;
71360;SDS011;59166;48.908;1.870;2023-02-13T10:42:31;42.10;;;17.93;;
71360;SDS011;59166;48.908;1.870;2023-02-13T10:47:46;41.67;;;18.92;;
71360;SDS011;59166;48.908;1.870;2023-02-13T10:52:58;39.85;;;17.38;;
71360;SDS011;59166;48.908;1.870;2023-02-13T10:58:13;42.10;;;18.93;;
71360;SDS011;59166;48.908;1.870;2023-02-13T11:03:19;44.80;;;19.38;;
71360;SDS011;59166;48.908;1.870;2023-02-13T11:08:22;40.78;;;19.48;;
71360;SDS011;59166;48.908;1.870;2023-02-13T11:13:28;42.13;;;18.87;;
71360;SDS011;59166;48.908;1.870;2023-02-13T11:18:30;42.92;;;20.08;;
71360;SDS011;59166;48.908;1.870;2023-02-13T11:23:33;39.30;;;18.58;;
71360;SDS011;59166;48.908;1.870;2023-02-13T11:28:38;37.20;;;16.77;;
71360;SDS011;59166;48.908;1.870;2023-02-13T11:33:47;35.20;;;17.20;;
71360;SDS011;59166;48.908;1.870;2023-02-13T11:38:53;38.88;;;17.55;;
71360;SDS011;59166;48.908;1.870;2023-02-13T11:43:59;39.57;;;19.37;;
71360;SDS011;59166;48.908;1.870;2023-02-13T11:49:02;52.25;;;23.58;;
71360;SDS011;59166;48.908;1.870;2023-02-13T11:54:04;40.40;;;18.98;;
71360;SDS011;59166;48.908;1.870;2023-02-13T11:59:10;29.07;;;13.50;;
71360;SDS011;59166;48.908;1.870;2023-02-13T12:04:13;28.05;;;13.27;;
71360;SDS011;59166;48.908;1.870;2023-02-13T12:09:15;29.10;;;12.65;;
71360;SDS011;59166;48.908;1.870;2023-02-13T12:14:18;26.43;;;12.23;;
71360;SDS011;59166;48.908;1.870;2023-02-13T12:19:22;27.45;;;12.77;;
71360;SDS011;59166;48.908;1.870;2023-02-13T12:24:31;29.83;;;12.80;;
71360;SDS011;59166;48.908;1.870;2023-02-13T12:29:52;28.45;;;12.98;;
71360;SDS011;59166;48.908;1.870;2023-02-13T12:35:15;27.63;;;12.63;;
71360;SDS011;59166;48.908;1.870;2023-02-13T12:41:01;27.97;;;13.13;;
71360;SDS011;59166;48.908;1.870;2023-02-13T12:46:14;26.27;;;12.50;;
71360;SDS011;59166;48.908;1.870;2023-02-13T12:51:30;28.20;;;13.50;;
71360;SDS011;59166;48.908;1.870;2023-02-13T12:57:02;29.60;;;13.02;;
71360;SDS011;59166;48.908;1.870;2023-02-13T13:02:28;28.70;;;12.53;;
71360;SDS011;59166;48.908;1.870;2023-02-13T13:07:51;28.45;;;13.80;;
71360;SDS011;59166;48.908;1.870;2023-02-13T13:13:02;28.52;;;13.27;;
71360;SDS011;59166;48.908;1.870;2023-02-13T13:18:17;28.67;;;13.60;;
71360;SDS011;59166;48.908;1.870;2023-02-13T13:23:30;29.70;;;13.25;;
71360;SDS011;59166;48.908;1.870;2023-02-13T13:28:33;29.38;;;13.68;;
71360;SDS011;59166;48.908;1.870;2023-02-13T13:33:39;30.33;;;13.97;;
71360;SDS011;59166;48.908;1.870;2023-02-13T13:38:45;28.63;;;13.50;;
71360;SDS011;59166;48.908;1.870;2023-02-13T13:43:57;29.30;;;14.18;;
71360;SDS011;59166;48.908;1.870;2023-02-13T13:49:28;29.02;;;14.20;;
71360;SDS011;59166;48.908;1.870;2023-02-13T13:54:35;27.83;;;13.83;;
71360;SDS011;59166;48.908;1.870;2023-02-13T14:05:20;27.70;;;13.77;;
71360;SDS011;59166;48.908;1.870;2023-02-13T14:16:08;28.60;;;13.90;;
71360;SDS011;59166;48.908;1.870;2023-02-13T14:21:12;27.98;;;13.43;;
71360;SDS011;59166;48.908;1.870;2023-02-13T14:26:32;27.40;;;13.47;;
71360;SDS011;59166;48.908;1.870;2023-02-13T14:31:37;30.75;;;14.25;;
71360;SDS011;59166;48.908;1.870;2023-02-13T14:36:43;31.77;;;14.52;;
71360;SDS011;59166;48.908;1.870;2023-02-13T14:41:56;30.20;;;14.67;;
71360;SDS011;59166;48.908;1.870;2023-02-13T14:46:58;28.25;;;14.05;;
71360;SDS011;59166;48.908;1.870;2023-02-13T14:52:03;28.23;;;15.35;;
71360;SDS011;59166;48.908;1.870;2023-02-13T14:57:09;27.97;;;14.73;;
71360;SDS011;59166;48.908;1.870;2023-02-13T15:02:18;29.07;;;15.37;;
71360;SDS011;59166;48.908;1.870;2023-02-13T15:07:25;30.42;;;14.65;;
71360;SDS011;59166;48.908;1.870;2023-02-13T15:12:47;31.30;;;15.45;;
71360;SDS011;59166;48.908;1.870;2023-02-13T15:17:57;32.13;;;15.57;;
71360;SDS011;59166;48.908;1.870;2023-02-13T15:23:02;31.45;;;15.77;;
71360;SDS011;59166;48.908;1.870;2023-02-13T15:28:05;31.73;;;15.95;;
71360;SDS011;59166;48.908;1.870;2023-02-13T15:33:26;30.80;;;15.43;;
71360;SDS011;59166;48.908;1.870;2023-02-13T15:38:30;30.98;;;15.65;;
71360;SDS011;59166;48.908;1.870;2023-02-13T15:43:32;29.63;;;15.40;;
71360;SDS011;59166;48.908;1.870;2023-02-13T15:48:34;33.00;;;15.90;;
71360;SDS011;59166;48.908;1.870;2023-02-13T15:53:37;31.73;;;16.63;;
71360;SDS011;59166;48.908;1.870;2023-02-13T15:58:50;40.90;;;18.30;;
71360;SDS011;59166;48.908;1.870;2023-02-13T16:03:53;33.45;;;17.23;;
71360;SDS011;59166;48.908;1.870;2023-02-13T16:09:00;33.90;;;16.17;;
71360;SDS011;59166;48.908;1.870;2023-02-13T16:19:28;32.47;;;16.50;;
71360;SDS011;59166;48.908;1.870;2023-02-13T16:24:47;36.40;;;17.73;;
71360;SDS011;59166;48.908;1.870;2023-02-13T16:29:52;33.25;;;16.15;;
71360;SDS011;59166;48.908;1.870;2023-02-13T16:34:56;34.28;;;16.75;;
71360;SDS011;59166;48.908;1.870;2023-02-13T16:40:23;31.40;;;15.97;;
71360;SDS011;59166;48.908;1.870;2023-02-13T16:45:32;34.80;;;16.73;;
71360;SDS011;59166;48.908;1.870;2023-02-13T16:50:33;31.80;;;15.82;;
71360;SDS011;59166;48.908;1.870;2023-02-13T16:55:36;28.73;;;14.97;;
71360;SDS011;59166;48.908;1.870;2023-02-13T17:00:36;31.42;;;14.50;;
71360;SDS011;59166;48.908;1.870;2023-02-13T17:05:37;30.83;;;14.50;;
71360;SDS011;59166;48.908;1.870;2023-02-13T17:10:40;30.23;;;14.30;;
71360;SDS011;59166;48.908;1.870;2023-02-13T17:16:00;29.08;;;14.02;;
71360;SDS011;59166;48.908;1.870;2023-02-13T17:21:00;27.17;;;13.82;;
71360;SDS011;59166;48.908;1.870;2023-02-13T17:26:03;30.70;;;15.50;;
71360;SDS011;59166;48.908;1.870;2023-02-13T17:31:04;32.30;;;15.68;;
71360;SDS011;59166;48.908;1.870;2023-02-13T17:36:11;32.80;;;15.43;;
71360;SDS011;59166;48.908;1.870;2023-02-13T17:41:14;40.13;;;17.87;;
71360;SDS011;59166;48.908;1.870;2023-02-13T17:46:15;36.00;;;17.02;;
71360;SDS011;59166;48.908;1.870;2023-02-13T17:51:16;30.50;;;14.80;;
71360;SDS011;59166;48.908;1.870;2023-02-13T17:56:19;28.55;;;13.52;;
71360;SDS011;59166;48.908;1.870;2023-02-13T18:01:19;30.60;;;14.18;;
71360;SDS011;59166;48.908;1.870;2023-02-13T18:06:20;29.03;;;14.07;;
71360;SDS011;59166;48.908;1.870;2023-02-13T18:11:23;32.22;;;15.80;;
71360;SDS011;59166;48.908;1.870;2023-02-13T18:16:24;29.67;;;15.02;;
71360;SDS011;59166;48.908;1.870;2023-02-13T18:21:25;33.73;;;15.93;;
71360;SDS011;59166;48.908;1.870;2023-02-13T18:26:27;33.25;;;15.82;;
71360;SDS011;59166;48.908;1.870;2023-02-13T18:31:28;31.93;;;15.70;;
71360;SDS011;59166;48.908;1.870;2023-02-13T18:36:29;33.03;;;15.70;;
71360;SDS011;59166;48.908;1.870;2023-02-13T18:41:31;35.50;;;17.33;;
71360;SDS011;59166;48.908;1.870;2023-02-13T18:46:32;35.70;;;15.90;;
71360;SDS011;59166;48.908;1.870;2023-02-13T18:51:34;32.80;;;16.03;;
71360;SDS011;59166;48.908;1.870;2023-02-13T19:01:38;35.90;;;17.13;;
71360;SDS011;59166;48.908;1.870;2023-02-13T19:06:39;35.83;;;17.83;;
71360;SDS011;59166;48.908;1.870;2023-02-13T19:11:43;40.15;;;19.60;;
71360;SDS011;59166;48.908;1.870;2023-02-13T19:16:44;41.00;;;19.35;;
71360;SDS011;59166;48.908;1.870;2023-02-13T19:21:45;38.20;;;18.70;;
71360;SDS011;59166;48.908;1.870;2023-02-13T19:26:47;41.75;;;18.83;;
71360;SDS011;59166;48.908;1.870;2023-02-13T19:31:48;41.27;;;18.90;;
71360;SDS011;59166;48.908;1.870;2023-02-13T19:36:49;42.97;;;19.35;;
71360;SDS011;59166;48.908;1.870;2023-02-13T19:41:52;44.70;;;19.92;;
71360;SDS011;59166;48.908;1.870;2023-02-13T19:46:53;44.50;;;22.17;;
71360;SDS011;59166;48.908;1.870;2023-02-13T19:51:54;40.38;;;20.75;;
71360;SDS011;59166;48.908;1.870;2023-02-13T19:56:56;40.85;;;20.23;;
71360;SDS011;59166;48.908;1.870;2023-02-13T20:01:57;45.63;;;21.97;;
71360;SDS011;59166;48.908;1.870;2023-02-13T20:06:58;43.60;;;22.40;;
71360;SDS011;59166;48.908;1.870;2023-02-13T20:12:00;42.73;;;21.53;;
71360;SDS011;59166;48.908;1.870;2023-02-13T20:17:01;39.08;;;20.65;;
71360;SDS011;59166;48.908;1.870;2023-02-13T20:22:02;40.55;;;19.90;;
71360;SDS011;59166;48.908;1.870;2023-02-13T20:27:05;41.57;;;20.17;;
71360;SDS011;59166;48.908;1.870;2023-02-13T20:32:05;44.28;;;21.00;;
71360;SDS011;59166;48.908;1.870;2023-02-13T20:37:07;41.65;;;20.85;;
71360;SDS011;59166;48.908;1.870;2023-02-13T20:42:11;42.63;;;21.20;;
71360;SDS011;59166;48.908;1.870;2023-02-13T20:47:12;43.33;;;21.25;;
71360;SDS011;59166;48.908;1.870;2023-02-13T20:52:13;48.70;;;21.67;;
71360;SDS011;59166;48.908;1.870;2023-02-13T20:57:15;47.20;;;22.33;;
71360;SDS011;59166;48.908;1.870;2023-02-13T21:02:16;50.85;;;24.80;;
71360;SDS011;59166;48.908;1.870;2023-02-13T21:07:17;46.47;;;22.83;;
71360;SDS011;59166;48.908;1.870;2023-02-13T21:12:19;48.97;;;23.80;;
71360;SDS011;59166;48.908;1.870;2023-02-13T21:17:21;49.40;;;23.38;;
71360;SDS011;59166;48.908;1.870;2023-02-13T21:22:22;48.22;;;22.88;;
71360;SDS011;59166;48.908;1.870;2023-02-13T21:27:25;47.67;;;22.10;;
71360;SDS011;59166;48.908;1.870;2023-02-13T21:32:26;49.88;;;22.73;;
71360;SDS011;59166;48.908;1.870;2023-02-13T21:37:28;47.70;;;21.63;;
71360;SDS011;59166;48.908;1.870;2023-02-13T21:42:30;48.50;;;22.43;;
71360;SDS011;59166;48.908;1.870;2023-02-13T21:47:31;46.07;;;21.17;;
71360;SDS011;59166;48.908;1.870;2023-02-13T21:52:33;49.70;;;22.55;;
71360;SDS011;59166;48.908;1.870;2023-02-13T21:57:36;49.37;;;22.73;;
71360;SDS011;59166;48.908;1.870;2023-02-13T22:02:37;46.40;;;21.37;;
71360;SDS011;59166;48.908;1.870;2023-02-13T22:07:41;45.95;;;21.02;;
71360;SDS011;59166;48.908;1.870;2023-02-13T22:12:44;49.38;;;23.42;;
71360;SDS011;59166;48.908;1.870;2023-02-13T22:17:55;50.17;;;23.63;;
71360;SDS011;59166;48.908;1.870;2023-02-13T22:22:56;52.28;;;24.73;;
71360;SDS011;59166;48.908;1.870;2023-02-13T22:27:59;52.00;;;24.20;;
71360;SDS011;59166;48.908;1.870;2023-02-13T22:33:00;47.20;;;22.73;;
71360;SDS011;59166;48.908;1.870;2023-02-13T22:38:01;49.75;;;22.33;;
71360;SDS011;59166;48.908;1.870;2023-02-13T22:43:04;50.90;;;23.00;;
71360;SDS011;59166;48.908;1.870;2023-02-13T22:48:25;52.40;;;22.93;;
71360;SDS011;59166;48.908;1.870;2023-02-13T22:53:27;53.53;;;23.63;;
71360;SDS011;59166;48.908;1.870;2023-02-13T22:58:32;50.33;;;21.98;;
71360;SDS011;59166;48.908;1.870;2023-02-13T23:03:36;47.42;;;22.38;;
71360;SDS011;59166;48.908;1.870;2023-02-13T23:08:58;48.63;;;21.10;;
71360;SDS011;59166;48.908;1.870;2023-02-13T23:14:03;45.80;;;21.02;;
71360;SDS011;59166;48.908;1.870;2023-02-13T23:19:23;51.13;;;22.10;;
71360;SDS011;59166;48.908;1.870;2023-02-13T23:24:45;50.23;;;22.57;;
71360;SDS011;59166;48.908;1.870;2023-02-13T23:29:57;51.17;;;21.42;;
71360;SDS011;59166;48.908;1.870;2023-02-13T23:35:02;46.85;;;19.52;;
71360;SDS011;59166;48.908;1.870;2023-02-13T23:40:04;47.80;;;21.47;;
71360;SDS011;59166;48.908;1.870;2023-02-13T23:45:21;46.73;;;20.80;;
71360;SDS011;59166;48.908;1.870;2023-02-13T23:50:34;46.92;;;20.52;;
71360;SDS011;59166;48.908;1.870;2023-02-13T23:55:50;51.97;;;21.52;;
